sensor_id;sensor_type;location;lat;lon;timestamp;P1;durP1;ratioP1;P2;durP2;ratioP2
13483;SDS011;6814;57.786;12.080;2022-11-02T00:00:10;16.03;;;3.90;;
13483;SDS011;6814;57.786;12.080;2022-11-02T00:02:37;17.73;;;4.00;;
13483;SDS011;6814;57.786;12.080;2022-11-02T00:05:03;20.77;;;3.80;;
13483;SDS011;6814;57.786;12.080;2022-11-02T00:07:30;16.33;;;3.40;;
13483;SDS011;6814;57.786;12.080;2022-11-02T00:09:58;14.93;;;3.50;;
13483;SDS011;6814;57.786;12.080;2022-11-02T00:12:24;18.23;;;4.13;;
13483;SDS011;6814;57.786;12.080;2022-11-02T00:14:50;25.07;;;4.77;;
13483;SDS011;6814;57.786;12.080;2022-11-02T00:17:17;13.90;;;3.67;;
13483;SDS011;6814;57.786;12.080;2022-11-02T00:19:43;13.63;;;3.60;;
13483;SDS011;6814;57.786;12.080;2022-11-02T00:22:09;19.30;;;4.10;;
13483;SDS011;6814;57.786;12.080;2022-11-02T00:24:36;19.50;;;4.10;;
13483;SDS011;6814;57.786;12.080;2022-11-02T00:27:04;13.27;;;3.40;;
13483;SDS011;6814;57.786;12.080;2022-11-02T00:29:30;19.10;;;3.63;;
13483;SDS011;6814;57.786;12.080;2022-11-02T00:31:58;17.60;;;3.83;;
13483;SDS011;6814;57.786;12.080;2022-11-02T00:34:25;16.90;;;3.80;;
13483;SDS011;6814;57.786;12.080;2022-11-02T00:36:52;21.17;;;4.00;;
13483;SDS011;6814;57.786;12.080;2022-11-02T00:39:18;15.27;;;4.53;;
13483;SDS011;6814;57.786;12.080;2022-11-02T00:41:45;14.53;;;3.83;;
13483;SDS011;6814;57.786;12.080;2022-11-02T00:44:13;15.27;;;4.00;;
13483;SDS011;6814;57.786;12.080;2022-11-02T00:46:39;17.80;;;3.50;;
13483;SDS011;6814;57.786;12.080;2022-11-02T00:49:05;15.50;;;3.73;;
13483;SDS011;6814;57.786;12.080;2022-11-02T00:51:32;22.70;;;4.17;;
13483;SDS011;6814;57.786;12.080;2022-11-02T00:53:58;20.83;;;4.00;;
13483;SDS011;6814;57.786;12.080;2022-11-02T00:56:24;15.37;;;3.30;;
13483;SDS011;6814;57.786;12.080;2022-11-02T00:58:51;13.00;;;3.73;;
13483;SDS011;6814;57.786;12.080;2022-11-02T01:01:19;17.60;;;3.67;;
13483;SDS011;6814;57.786;12.080;2022-11-02T01:03:46;19.10;;;3.83;;
13483;SDS011;6814;57.786;12.080;2022-11-02T01:06:13;14.83;;;3.27;;
13483;SDS011;6814;57.786;12.080;2022-11-02T01:08:40;19.03;;;3.90;;
13483;SDS011;6814;57.786;12.080;2022-11-02T01:11:10;18.70;;;4.13;;
13483;SDS011;6814;57.786;12.080;2022-11-02T01:13:36;17.33;;;3.97;;
13483;SDS011;6814;57.786;12.080;2022-11-02T01:16:03;22.30;;;3.80;;
13483;SDS011;6814;57.786;12.080;2022-11-02T01:18:31;21.30;;;4.13;;
13483;SDS011;6814;57.786;12.080;2022-11-02T01:20:58;18.47;;;3.80;;
13483;SDS011;6814;57.786;12.080;2022-11-02T01:23:24;22.73;;;4.20;;
13483;SDS011;6814;57.786;12.080;2022-11-02T01:25:51;16.63;;;3.80;;
13483;SDS011;6814;57.786;12.080;2022-11-02T01:28:17;17.37;;;3.87;;
13483;SDS011;6814;57.786;12.080;2022-11-02T01:30:45;18.80;;;4.27;;
13483;SDS011;6814;57.786;12.080;2022-11-02T01:33:12;22.87;;;3.80;;
13483;SDS011;6814;57.786;12.080;2022-11-02T01:35:40;18.87;;;4.50;;
13483;SDS011;6814;57.786;12.080;2022-11-02T01:38:07;17.77;;;3.87;;
13483;SDS011;6814;57.786;12.080;2022-11-02T01:40:33;18.70;;;3.63;;
13483;SDS011;6814;57.786;12.080;2022-11-02T01:43:00;20.37;;;3.90;;
13483;SDS011;6814;57.786;12.080;2022-11-02T01:45:26;17.20;;;3.60;;
13483;SDS011;6814;57.786;12.080;2022-11-02T01:47:53;22.53;;;4.03;;
13483;SDS011;6814;57.786;12.080;2022-11-02T01:50:21;21.30;;;4.40;;
13483;SDS011;6814;57.786;12.080;2022-11-02T01:52:50;23.50;;;4.57;;
13483;SDS011;6814;57.786;12.080;2022-11-02T01:55:17;22.57;;;4.30;;
13483;SDS011;6814;57.786;12.080;2022-11-02T01:57:46;24.53;;;4.37;;
13483;SDS011;6814;57.786;12.080;2022-11-02T02:00:13;18.13;;;4.57;;
13483;SDS011;6814;57.786;12.080;2022-11-02T02:02:42;21.10;;;4.50;;
13483;SDS011;6814;57.786;12.080;2022-11-02T02:05:10;17.63;;;4.27;;
13483;SDS011;6814;57.786;12.080;2022-11-02T02:07:38;15.70;;;4.17;;
13483;SDS011;6814;57.786;12.080;2022-11-02T02:10:06;18.83;;;3.97;;
13483;SDS011;6814;57.786;12.080;2022-11-02T02:12:33;16.80;;;3.90;;
13483;SDS011;6814;57.786;12.080;2022-11-02T02:15:01;20.83;;;4.40;;
13483;SDS011;6814;57.786;12.080;2022-11-02T02:17:30;25.27;;;4.13;;
13483;SDS011;6814;57.786;12.080;2022-11-02T02:19:59;22.67;;;4.30;;
13483;SDS011;6814;57.786;12.080;2022-11-02T02:22:38;23.90;;;4.83;;
13483;SDS011;6814;57.786;12.080;2022-11-02T02:25:13;15.80;;;4.00;;
13483;SDS011;6814;57.786;12.080;2022-11-02T02:27:53;19.43;;;4.13;;
13483;SDS011;6814;57.786;12.080;2022-11-02T02:30:21;23.50;;;4.03;;
13483;SDS011;6814;57.786;12.080;2022-11-02T02:32:49;14.80;;;3.57;;
13483;SDS011;6814;57.786;12.080;2022-11-02T02:35:21;21.80;;;4.00;;
13483;SDS011;6814;57.786;12.080;2022-11-02T02:37:51;16.97;;;3.80;;
13483;SDS011;6814;57.786;12.080;2022-11-02T02:40:21;19.87;;;4.10;;
13483;SDS011;6814;57.786;12.080;2022-11-02T02:42:50;14.23;;;4.23;;
13483;SDS011;6814;57.786;12.080;2022-11-02T02:45:20;19.57;;;3.47;;
13483;SDS011;6814;57.786;12.080;2022-11-02T02:47:51;22.77;;;4.17;;
13483;SDS011;6814;57.786;12.080;2022-11-02T02:50:20;23.00;;;4.30;;
13483;SDS011;6814;57.786;12.080;2022-11-02T02:52:48;20.60;;;3.67;;
13483;SDS011;6814;57.786;12.080;2022-11-02T02:55:17;17.33;;;3.17;;
13483;SDS011;6814;57.786;12.080;2022-11-02T02:57:45;16.20;;;4.00;;
13483;SDS011;6814;57.786;12.080;2022-11-02T03:00:13;17.93;;;3.70;;
13483;SDS011;6814;57.786;12.080;2022-11-02T03:02:42;18.63;;;4.23;;
13483;SDS011;6814;57.786;12.080;2022-11-02T03:05:25;22.47;;;3.90;;
13483;SDS011;6814;57.786;12.080;2022-11-02T03:07:52;20.93;;;4.50;;
13483;SDS011;6814;57.786;12.080;2022-11-02T03:10:20;17.53;;;3.97;;
13483;SDS011;6814;57.786;12.080;2022-11-02T03:12:49;19.50;;;4.13;;
13483;SDS011;6814;57.786;12.080;2022-11-02T03:15:21;18.00;;;3.40;;
13483;SDS011;6814;57.786;12.080;2022-11-02T03:17:53;17.63;;;3.93;;
13483;SDS011;6814;57.786;12.080;2022-11-02T03:20:25;17.90;;;3.83;;
13483;SDS011;6814;57.786;12.080;2022-11-02T03:22:56;18.63;;;3.60;;
13483;SDS011;6814;57.786;12.080;2022-11-02T03:25:27;17.13;;;3.70;;
13483;SDS011;6814;57.786;12.080;2022-11-02T03:27:55;20.77;;;4.23;;
13483;SDS011;6814;57.786;12.080;2022-11-02T03:30:23;19.17;;;3.83;;
13483;SDS011;6814;57.786;12.080;2022-11-02T03:32:54;19.73;;;4.30;;
13483;SDS011;6814;57.786;12.080;2022-11-02T03:35:23;17.30;;;3.40;;
13483;SDS011;6814;57.786;12.080;2022-11-02T03:37:54;9.83;;;3.20;;
13483;SDS011;6814;57.786;12.080;2022-11-02T03:40:24;22.50;;;3.73;;
13483;SDS011;6814;57.786;12.080;2022-11-02T03:42:52;19.30;;;4.00;;
13483;SDS011;6814;57.786;12.080;2022-11-02T03:45:19;18.33;;;4.23;;
13483;SDS011;6814;57.786;12.080;2022-11-02T03:47:47;15.43;;;3.77;;
13483;SDS011;6814;57.786;12.080;2022-11-02T03:50:17;23.70;;;4.73;;
13483;SDS011;6814;57.786;12.080;2022-11-02T03:52:44;14.93;;;3.20;;
13483;SDS011;6814;57.786;12.080;2022-11-02T03:55:12;22.40;;;4.47;;
13483;SDS011;6814;57.786;12.080;2022-11-02T03:57:41;13.07;;;3.60;;
13483;SDS011;6814;57.786;12.080;2022-11-02T04:00:09;18.33;;;4.23;;
13483;SDS011;6814;57.786;12.080;2022-11-02T04:02:36;21.27;;;3.93;;
13483;SDS011;6814;57.786;12.080;2022-11-02T04:05:04;14.60;;;3.90;;
13483;SDS011;6814;57.786;12.080;2022-11-02T04:07:32;18.83;;;4.30;;
13483;SDS011;6814;57.786;12.080;2022-11-02T04:10:19;19.20;;;4.83;;
13483;SDS011;6814;57.786;12.080;2022-11-02T04:12:46;19.53;;;3.90;;
13483;SDS011;6814;57.786;12.080;2022-11-02T04:15:30;14.77;;;3.97;;
13483;SDS011;6814;57.786;12.080;2022-11-02T04:17:56;11.07;;;2.97;;
13483;SDS011;6814;57.786;12.080;2022-11-02T04:20:40;14.40;;;3.90;;
13483;SDS011;6814;57.786;12.080;2022-11-02T04:23:08;16.70;;;3.43;;
13483;SDS011;6814;57.786;12.080;2022-11-02T04:25:52;16.87;;;3.80;;
13483;SDS011;6814;57.786;12.080;2022-11-02T04:28:18;23.50;;;4.27;;
13483;SDS011;6814;57.786;12.080;2022-11-02T04:30:45;14.33;;;3.47;;
13483;SDS011;6814;57.786;12.080;2022-11-02T04:33:11;16.83;;;4.73;;
13483;SDS011;6814;57.786;12.080;2022-11-02T04:35:55;13.70;;;3.60;;
13483;SDS011;6814;57.786;12.080;2022-11-02T04:38:25;17.77;;;4.27;;
13483;SDS011;6814;57.786;12.080;2022-11-02T04:41:05;15.90;;;3.60;;
13483;SDS011;6814;57.786;12.080;2022-11-02T04:43:49;16.67;;;4.17;;
13483;SDS011;6814;57.786;12.080;2022-11-02T04:46:16;14.83;;;3.63;;
13483;SDS011;6814;57.786;12.080;2022-11-02T04:48:42;11.97;;;3.30;;
13483;SDS011;6814;57.786;12.080;2022-11-02T04:51:09;14.53;;;4.40;;
13483;SDS011;6814;57.786;12.080;2022-11-02T04:53:37;17.80;;;4.13;;
13483;SDS011;6814;57.786;12.080;2022-11-02T04:56:20;13.83;;;3.60;;
13483;SDS011;6814;57.786;12.080;2022-11-02T04:58:59;19.10;;;3.97;;
13483;SDS011;6814;57.786;12.080;2022-11-02T05:01:26;17.70;;;3.90;;
13483;SDS011;6814;57.786;12.080;2022-11-02T05:03:56;15.27;;;3.67;;
13483;SDS011;6814;57.786;12.080;2022-11-02T05:06:23;13.83;;;3.40;;
13483;SDS011;6814;57.786;12.080;2022-11-02T05:08:51;23.10;;;4.13;;
13483;SDS011;6814;57.786;12.080;2022-11-02T05:11:20;13.17;;;3.80;;
13483;SDS011;6814;57.786;12.080;2022-11-02T05:13:47;14.13;;;3.97;;
13483;SDS011;6814;57.786;12.080;2022-11-02T05:16:18;17.13;;;4.43;;
13483;SDS011;6814;57.786;12.080;2022-11-02T05:18:45;15.50;;;4.27;;
13483;SDS011;6814;57.786;12.080;2022-11-02T05:21:13;22.80;;;4.83;;
13483;SDS011;6814;57.786;12.080;2022-11-02T05:23:40;18.07;;;4.97;;
13483;SDS011;6814;57.786;12.080;2022-11-02T05:26:08;21.63;;;4.80;;
13483;SDS011;6814;57.786;12.080;2022-11-02T05:28:35;20.67;;;4.93;;
13483;SDS011;6814;57.786;12.080;2022-11-02T05:31:02;20.40;;;5.17;;
13483;SDS011;6814;57.786;12.080;2022-11-02T05:33:29;13.27;;;4.57;;
13483;SDS011;6814;57.786;12.080;2022-11-02T05:35:56;10.20;;;4.13;;
13483;SDS011;6814;57.786;12.080;2022-11-02T05:38:22;15.97;;;4.70;;
13483;SDS011;6814;57.786;12.080;2022-11-02T05:40:52;16.37;;;5.07;;
13483;SDS011;6814;57.786;12.080;2022-11-02T05:43:20;19.67;;;5.27;;
13483;SDS011;6814;57.786;12.080;2022-11-02T05:45:50;13.30;;;4.63;;
13483;SDS011;6814;57.786;12.080;2022-11-02T05:48:16;17.43;;;5.70;;
13483;SDS011;6814;57.786;12.080;2022-11-02T05:50:43;22.90;;;5.70;;
13483;SDS011;6814;57.786;12.080;2022-11-02T05:53:09;19.27;;;5.80;;
13483;SDS011;6814;57.786;12.080;2022-11-02T05:55:36;18.37;;;5.60;;
13483;SDS011;6814;57.786;12.080;2022-11-02T05:58:02;23.93;;;6.53;;
13483;SDS011;6814;57.786;12.080;2022-11-02T06:00:30;16.07;;;6.10;;
13483;SDS011;6814;57.786;12.080;2022-11-02T06:02:56;18.23;;;6.17;;
13483;SDS011;6814;57.786;12.080;2022-11-02T06:05:23;15.33;;;5.77;;
13483;SDS011;6814;57.786;12.080;2022-11-02T06:07:50;19.07;;;6.10;;
13483;SDS011;6814;57.786;12.080;2022-11-02T06:10:17;19.30;;;6.10;;
13483;SDS011;6814;57.786;12.080;2022-11-02T06:12:43;20.17;;;6.77;;
13483;SDS011;6814;57.786;12.080;2022-11-02T06:15:10;19.03;;;5.73;;
13483;SDS011;6814;57.786;12.080;2022-11-02T06:17:38;19.67;;;5.83;;
13483;SDS011;6814;57.786;12.080;2022-11-02T06:20:05;22.83;;;6.03;;
13483;SDS011;6814;57.786;12.080;2022-11-02T06:22:37;22.50;;;5.57;;
13483;SDS011;6814;57.786;12.080;2022-11-02T06:25:03;19.97;;;6.87;;
13483;SDS011;6814;57.786;12.080;2022-11-02T06:27:30;20.00;;;6.20;;
13483;SDS011;6814;57.786;12.080;2022-11-02T06:29:56;19.43;;;7.13;;
13483;SDS011;6814;57.786;12.080;2022-11-02T06:32:22;19.23;;;5.93;;
13483;SDS011;6814;57.786;12.080;2022-11-02T06:34:50;17.00;;;6.53;;
13483;SDS011;6814;57.786;12.080;2022-11-02T06:37:17;16.67;;;6.70;;
13483;SDS011;6814;57.786;12.080;2022-11-02T06:39:45;24.77;;;7.23;;
13483;SDS011;6814;57.786;12.080;2022-11-02T06:42:14;18.93;;;6.20;;
13483;SDS011;6814;57.786;12.080;2022-11-02T06:44:40;16.93;;;6.13;;
13483;SDS011;6814;57.786;12.080;2022-11-02T06:47:09;18.03;;;6.20;;
13483;SDS011;6814;57.786;12.080;2022-11-02T06:49:35;20.93;;;6.80;;
13483;SDS011;6814;57.786;12.080;2022-11-02T06:52:04;24.47;;;7.00;;
13483;SDS011;6814;57.786;12.080;2022-11-02T06:54:31;17.43;;;6.13;;
13483;SDS011;6814;57.786;12.080;2022-11-02T06:57:02;25.23;;;6.90;;
13483;SDS011;6814;57.786;12.080;2022-11-02T06:59:37;22.73;;;6.83;;
13483;SDS011;6814;57.786;12.080;2022-11-02T07:02:03;15.80;;;5.30;;
13483;SDS011;6814;57.786;12.080;2022-11-02T07:04:30;19.73;;;5.50;;
13483;SDS011;6814;57.786;12.080;2022-11-02T07:07:07;20.30;;;5.57;;
13483;SDS011;6814;57.786;12.080;2022-11-02T07:09:34;16.57;;;5.30;;
13483;SDS011;6814;57.786;12.080;2022-11-02T07:12:02;17.93;;;4.93;;
13483;SDS011;6814;57.786;12.080;2022-11-02T07:14:29;18.27;;;5.70;;
13483;SDS011;6814;57.786;12.080;2022-11-02T07:16:57;13.97;;;5.97;;
13483;SDS011;6814;57.786;12.080;2022-11-02T07:19:23;20.23;;;6.27;;
13483;SDS011;6814;57.786;12.080;2022-11-02T07:21:54;19.47;;;5.70;;
13483;SDS011;6814;57.786;12.080;2022-11-02T07:24:22;20.60;;;6.37;;
13483;SDS011;6814;57.786;12.080;2022-11-02T07:26:49;14.43;;;6.00;;
13483;SDS011;6814;57.786;12.080;2022-11-02T07:29:16;16.33;;;6.23;;
13483;SDS011;6814;57.786;12.080;2022-11-02T07:31:42;18.23;;;6.07;;
13483;SDS011;6814;57.786;12.080;2022-11-02T07:34:09;14.23;;;5.53;;
13483;SDS011;6814;57.786;12.080;2022-11-02T07:36:35;12.30;;;5.33;;
13483;SDS011;6814;57.786;12.080;2022-11-02T07:39:02;11.90;;;5.10;;
13483;SDS011;6814;57.786;12.080;2022-11-02T07:41:30;18.90;;;5.70;;
13483;SDS011;6814;57.786;12.080;2022-11-02T07:43:57;13.80;;;5.57;;
13483;SDS011;6814;57.786;12.080;2022-11-02T07:46:23;17.07;;;6.10;;
13483;SDS011;6814;57.786;12.080;2022-11-02T07:48:50;12.83;;;5.90;;
13483;SDS011;6814;57.786;12.080;2022-11-02T07:51:16;12.73;;;5.27;;
13483;SDS011;6814;57.786;12.080;2022-11-02T07:53:43;9.77;;;4.80;;
13483;SDS011;6814;57.786;12.080;2022-11-02T07:56:09;12.43;;;4.90;;
13483;SDS011;6814;57.786;12.080;2022-11-02T07:58:37;14.50;;;5.10;;
13483;SDS011;6814;57.786;12.080;2022-11-02T08:01:04;10.53;;;3.97;;
13483;SDS011;6814;57.786;12.080;2022-11-02T08:03:30;10.50;;;4.00;;
13483;SDS011;6814;57.786;12.080;2022-11-02T08:05:59;12.93;;;4.80;;
13483;SDS011;6814;57.786;12.080;2022-11-02T08:08:25;13.63;;;4.77;;
13483;SDS011;6814;57.786;12.080;2022-11-02T08:10:52;11.60;;;4.47;;
13483;SDS011;6814;57.786;12.080;2022-11-02T08:13:18;11.67;;;4.63;;
13483;SDS011;6814;57.786;12.080;2022-11-02T08:15:49;13.80;;;4.93;;
13483;SDS011;6814;57.786;12.080;2022-11-02T08:18:16;13.37;;;5.07;;
13483;SDS011;6814;57.786;12.080;2022-11-02T08:20:44;11.50;;;5.20;;
13483;SDS011;6814;57.786;12.080;2022-11-02T08:23:11;11.03;;;5.10;;
13483;SDS011;6814;57.786;12.080;2022-11-02T08:25:39;12.07;;;5.20;;
13483;SDS011;6814;57.786;12.080;2022-11-02T08:28:11;11.27;;;5.33;;
13483;SDS011;6814;57.786;12.080;2022-11-02T08:30:41;17.97;;;5.97;;
13483;SDS011;6814;57.786;12.080;2022-11-02T08:33:11;16.43;;;5.73;;
13483;SDS011;6814;57.786;12.080;2022-11-02T08:35:43;15.33;;;6.60;;
13483;SDS011;6814;57.786;12.080;2022-11-02T08:38:10;15.30;;;6.33;;
13483;SDS011;6814;57.786;12.080;2022-11-02T08:40:37;16.47;;;6.67;;
13483;SDS011;6814;57.786;12.080;2022-11-02T08:43:03;13.53;;;6.10;;
13483;SDS011;6814;57.786;12.080;2022-11-02T08:45:30;17.03;;;7.70;;
13483;SDS011;6814;57.786;12.080;2022-11-02T08:47:57;20.10;;;6.50;;
13483;SDS011;6814;57.786;12.080;2022-11-02T08:50:25;17.13;;;7.27;;
13483;SDS011;6814;57.786;12.080;2022-11-02T08:52:52;17.13;;;6.47;;
13483;SDS011;6814;57.786;12.080;2022-11-02T08:55:19;19.77;;;7.03;;
13483;SDS011;6814;57.786;12.080;2022-11-02T08:57:45;22.83;;;7.17;;
13483;SDS011;6814;57.786;12.080;2022-11-02T09:00:14;18.27;;;6.33;;
13483;SDS011;6814;57.786;12.080;2022-11-02T09:02:41;16.23;;;6.30;;
13483;SDS011;6814;57.786;12.080;2022-11-02T09:05:08;22.00;;;6.30;;
13483;SDS011;6814;57.786;12.080;2022-11-02T09:07:36;18.87;;;6.00;;
13483;SDS011;6814;57.786;12.080;2022-11-02T09:10:02;18.63;;;6.43;;
13483;SDS011;6814;57.786;12.080;2022-11-02T09:12:29;20.40;;;6.37;;
13483;SDS011;6814;57.786;12.080;2022-11-02T09:14:56;17.97;;;5.10;;
13483;SDS011;6814;57.786;12.080;2022-11-02T09:17:23;15.00;;;5.13;;
13483;SDS011;6814;57.786;12.080;2022-11-02T09:19:49;19.60;;;5.23;;
13483;SDS011;6814;57.786;12.080;2022-11-02T09:22:16;13.20;;;4.77;;
13483;SDS011;6814;57.786;12.080;2022-11-02T09:24:43;16.13;;;5.00;;
13483;SDS011;6814;57.786;12.080;2022-11-02T09:27:10;12.73;;;4.57;;
13483;SDS011;6814;57.786;12.080;2022-11-02T09:29:36;10.30;;;3.53;;
13483;SDS011;6814;57.786;12.080;2022-11-02T09:32:05;12.57;;;3.77;;
13483;SDS011;6814;57.786;12.080;2022-11-02T09:34:34;14.60;;;3.80;;
13483;SDS011;6814;57.786;12.080;2022-11-02T09:37:14;17.77;;;4.10;;
13483;SDS011;6814;57.786;12.080;2022-11-02T09:39:41;12.67;;;3.80;;
13483;SDS011;6814;57.786;12.080;2022-11-02T09:42:12;13.13;;;3.60;;
13483;SDS011;6814;57.786;12.080;2022-11-02T09:44:43;12.43;;;3.80;;
13483;SDS011;6814;57.786;12.080;2022-11-02T09:47:12;12.17;;;4.13;;
13483;SDS011;6814;57.786;12.080;2022-11-02T09:49:40;11.57;;;4.10;;
13483;SDS011;6814;57.786;12.080;2022-11-02T09:52:08;15.33;;;4.10;;
13483;SDS011;6814;57.786;12.080;2022-11-02T09:54:39;16.63;;;4.90;;
13483;SDS011;6814;57.786;12.080;2022-11-02T09:57:08;11.57;;;4.50;;
13483;SDS011;6814;57.786;12.080;2022-11-02T09:59:36;17.40;;;4.47;;
13483;SDS011;6814;57.786;12.080;2022-11-02T10:02:04;17.17;;;4.77;;
13483;SDS011;6814;57.786;12.080;2022-11-02T10:05:01;22.43;;;5.20;;
13483;SDS011;6814;57.786;12.080;2022-11-02T10:07:40;14.23;;;4.80;;
13483;SDS011;6814;57.786;12.080;2022-11-02T10:10:11;14.03;;;4.53;;
13483;SDS011;6814;57.786;12.080;2022-11-02T10:12:40;10.93;;;4.20;;
13483;SDS011;6814;57.786;12.080;2022-11-02T10:15:12;14.37;;;4.33;;
13483;SDS011;6814;57.786;12.080;2022-11-02T10:17:41;20.67;;;4.93;;
13483;SDS011;6814;57.786;12.080;2022-11-02T10:20:14;14.30;;;4.30;;
13483;SDS011;6814;57.786;12.080;2022-11-02T10:22:43;15.93;;;4.80;;
13483;SDS011;6814;57.786;12.080;2022-11-02T10:25:11;11.60;;;4.93;;
13483;SDS011;6814;57.786;12.080;2022-11-02T10:27:40;15.63;;;4.73;;
13483;SDS011;6814;57.786;12.080;2022-11-02T10:30:09;16.27;;;4.70;;
13483;SDS011;6814;57.786;12.080;2022-11-02T10:32:39;16.47;;;5.00;;
13483;SDS011;6814;57.786;12.080;2022-11-02T10:35:11;12.23;;;4.00;;
13483;SDS011;6814;57.786;12.080;2022-11-02T10:37:44;11.57;;;4.10;;
13483;SDS011;6814;57.786;12.080;2022-11-02T10:40:20;11.93;;;4.77;;
13483;SDS011;6814;57.786;12.080;2022-11-02T10:42:54;11.83;;;4.50;;
13483;SDS011;6814;57.786;12.080;2022-11-02T10:48:08;13.53;;;3.93;;
13483;SDS011;6814;57.786;12.080;2022-11-02T10:50:44;14.20;;;3.87;;
13483;SDS011;6814;57.786;12.080;2022-11-02T10:53:12;14.13;;;3.40;;
13483;SDS011;6814;57.786;12.080;2022-11-02T10:55:41;10.97;;;3.67;;
13483;SDS011;6814;57.786;12.080;2022-11-02T10:58:10;12.73;;;3.20;;
13483;SDS011;6814;57.786;12.080;2022-11-02T11:00:41;9.80;;;3.37;;
13483;SDS011;6814;57.786;12.080;2022-11-02T11:03:11;10.93;;;3.37;;
13483;SDS011;6814;57.786;12.080;2022-11-02T11:05:42;11.43;;;3.30;;
13483;SDS011;6814;57.786;12.080;2022-11-02T11:08:24;13.17;;;3.23;;
13483;SDS011;6814;57.786;12.080;2022-11-02T11:10:52;8.67;;;2.83;;
13483;SDS011;6814;57.786;12.080;2022-11-02T11:13:20;8.50;;;2.80;;
13483;SDS011;6814;57.786;12.080;2022-11-02T11:15:48;7.97;;;2.60;;
13483;SDS011;6814;57.786;12.080;2022-11-02T11:18:18;8.33;;;2.87;;
13483;SDS011;6814;57.786;12.080;2022-11-02T11:20:45;9.97;;;2.57;;
13483;SDS011;6814;57.786;12.080;2022-11-02T11:23:16;8.03;;;2.43;;
13483;SDS011;6814;57.786;12.080;2022-11-02T11:25:46;9.87;;;2.97;;
13483;SDS011;6814;57.786;12.080;2022-11-02T11:28:22;12.07;;;2.33;;
13483;SDS011;6814;57.786;12.080;2022-11-02T11:30:49;12.33;;;2.97;;
13483;SDS011;6814;57.786;12.080;2022-11-02T11:33:16;6.83;;;2.27;;
13483;SDS011;6814;57.786;12.080;2022-11-02T11:35:47;10.63;;;2.97;;
13483;SDS011;6814;57.786;12.080;2022-11-02T11:38:15;6.80;;;2.27;;
13483;SDS011;6814;57.786;12.080;2022-11-02T11:40:43;9.20;;;2.13;;
13483;SDS011;6814;57.786;12.080;2022-11-02T11:43:12;4.60;;;1.83;;
13483;SDS011;6814;57.786;12.080;2022-11-02T11:45:40;8.57;;;2.10;;
13483;SDS011;6814;57.786;12.080;2022-11-02T11:48:21;8.10;;;2.10;;
13483;SDS011;6814;57.786;12.080;2022-11-02T11:50:50;11.10;;;2.27;;
13483;SDS011;6814;57.786;12.080;2022-11-02T11:53:17;11.10;;;2.70;;
13483;SDS011;6814;57.786;12.080;2022-11-02T11:55:45;6.33;;;2.27;;
13483;SDS011;6814;57.786;12.080;2022-11-02T11:58:12;7.13;;;1.77;;
13483;SDS011;6814;57.786;12.080;2022-11-02T12:00:41;4.13;;;1.40;;
13483;SDS011;6814;57.786;12.080;2022-11-02T12:03:08;5.07;;;1.47;;
13483;SDS011;6814;57.786;12.080;2022-11-02T12:05:39;6.03;;;1.57;;
13483;SDS011;6814;57.786;12.080;2022-11-02T12:08:14;7.80;;;1.50;;
13483;SDS011;6814;57.786;12.080;2022-11-02T12:10:46;7.73;;;1.30;;
13483;SDS011;6814;57.786;12.080;2022-11-02T12:13:19;6.07;;;1.67;;
13483;SDS011;6814;57.786;12.080;2022-11-02T12:15:52;5.47;;;1.60;;
13483;SDS011;6814;57.786;12.080;2022-11-02T12:18:28;9.13;;;1.83;;
13483;SDS011;6814;57.786;12.080;2022-11-02T12:20:58;6.60;;;1.63;;
13483;SDS011;6814;57.786;12.080;2022-11-02T12:23:38;5.77;;;1.87;;
13483;SDS011;6814;57.786;12.080;2022-11-02T12:26:12;4.67;;;1.43;;
13483;SDS011;6814;57.786;12.080;2022-11-02T12:28:42;6.40;;;1.00;;
13483;SDS011;6814;57.786;12.080;2022-11-02T12:31:14;5.63;;;1.40;;
13483;SDS011;6814;57.786;12.080;2022-11-02T12:33:49;8.10;;;1.73;;
13483;SDS011;6814;57.786;12.080;2022-11-02T12:36:25;8.10;;;1.37;;
13483;SDS011;6814;57.786;12.080;2022-11-02T12:39:02;6.60;;;1.17;;
13483;SDS011;6814;57.786;12.080;2022-11-02T12:41:41;6.20;;;1.37;;
13483;SDS011;6814;57.786;12.080;2022-11-02T12:44:17;6.60;;;1.07;;
13483;SDS011;6814;57.786;12.080;2022-11-02T12:46:49;8.93;;;1.63;;
13483;SDS011;6814;57.786;12.080;2022-11-02T12:49:25;4.97;;;0.97;;
13483;SDS011;6814;57.786;12.080;2022-11-02T12:51:53;10.63;;;2.17;;
13483;SDS011;6814;57.786;12.080;2022-11-02T12:54:25;7.03;;;1.20;;
13483;SDS011;6814;57.786;12.080;2022-11-02T12:56:53;6.43;;;1.57;;
13483;SDS011;6814;57.786;12.080;2022-11-02T12:59:20;6.50;;;1.37;;
13483;SDS011;6814;57.786;12.080;2022-11-02T13:01:47;8.37;;;1.23;;
13483;SDS011;6814;57.786;12.080;2022-11-02T13:04:17;7.70;;;1.20;;
13483;SDS011;6814;57.786;12.080;2022-11-02T13:06:45;11.53;;;1.73;;
13483;SDS011;6814;57.786;12.080;2022-11-02T13:09:14;5.37;;;1.47;;
13483;SDS011;6814;57.786;12.080;2022-11-02T13:11:50;8.80;;;1.60;;
13483;SDS011;6814;57.786;12.080;2022-11-02T13:14:22;5.03;;;1.37;;
13483;SDS011;6814;57.786;12.080;2022-11-02T13:16:52;5.10;;;1.43;;
13483;SDS011;6814;57.786;12.080;2022-11-02T13:19:21;5.33;;;1.50;;
13483;SDS011;6814;57.786;12.080;2022-11-02T13:21:51;5.63;;;1.00;;
13483;SDS011;6814;57.786;12.080;2022-11-02T13:24:25;3.27;;;0.90;;
13483;SDS011;6814;57.786;12.080;2022-11-02T13:26:54;6.10;;;1.40;;
13483;SDS011;6814;57.786;12.080;2022-11-02T13:29:23;5.50;;;0.93;;
13483;SDS011;6814;57.786;12.080;2022-11-02T13:31:54;2.47;;;0.73;;
13483;SDS011;6814;57.786;12.080;2022-11-02T13:34:28;3.70;;;1.00;;
13483;SDS011;6814;57.786;12.080;2022-11-02T13:36:56;7.37;;;1.33;;
13483;SDS011;6814;57.786;12.080;2022-11-02T13:39:25;5.53;;;0.80;;
13483;SDS011;6814;57.786;12.080;2022-11-02T13:42:06;6.87;;;1.50;;
13483;SDS011;6814;57.786;12.080;2022-11-02T13:44:43;5.00;;;1.03;;
13483;SDS011;6814;57.786;12.080;2022-11-02T13:47:20;4.80;;;1.27;;
13483;SDS011;6814;57.786;12.080;2022-11-02T13:50:06;3.70;;;1.20;;
13483;SDS011;6814;57.786;12.080;2022-11-02T13:52:36;2.37;;;0.97;;
13483;SDS011;6814;57.786;12.080;2022-11-02T13:55:18;9.17;;;1.30;;
13483;SDS011;6814;57.786;12.080;2022-11-02T13:57:52;4.60;;;0.90;;
13483;SDS011;6814;57.786;12.080;2022-11-02T14:00:27;4.10;;;1.20;;
13483;SDS011;6814;57.786;12.080;2022-11-02T14:03:13;5.93;;;0.90;;
13483;SDS011;6814;57.786;12.080;2022-11-02T14:05:43;5.13;;;1.33;;
13483;SDS011;6814;57.786;12.080;2022-11-02T14:08:15;4.17;;;1.20;;
13483;SDS011;6814;57.786;12.080;2022-11-02T14:10:43;4.87;;;1.20;;
13483;SDS011;6814;57.786;12.080;2022-11-02T14:16:09;4.00;;;1.27;;
13483;SDS011;6814;57.786;12.080;2022-11-02T14:18:39;6.67;;;1.60;;
13483;SDS011;6814;57.786;12.080;2022-11-02T14:23:51;5.50;;;1.30;;
13483;SDS011;6814;57.786;12.080;2022-11-02T14:32:16;5.53;;;1.40;;
13483;SDS011;6814;57.786;12.080;2022-11-02T14:34:59;7.10;;;1.60;;
13483;SDS011;6814;57.786;12.080;2022-11-02T14:37:49;6.07;;;1.13;;
13483;SDS011;6814;57.786;12.080;2022-11-02T14:40:19;5.63;;;1.63;;
13483;SDS011;6814;57.786;12.080;2022-11-02T14:45:52;8.77;;;1.60;;
13483;SDS011;6814;57.786;12.080;2022-11-02T14:48:31;7.17;;;1.40;;
13483;SDS011;6814;57.786;12.080;2022-11-02T14:51:15;5.57;;;1.40;;
13483;SDS011;6814;57.786;12.080;2022-11-02T14:54:13;9.33;;;1.80;;
13483;SDS011;6814;57.786;12.080;2022-11-02T14:56:50;6.87;;;1.83;;
13483;SDS011;6814;57.786;12.080;2022-11-02T14:59:21;8.73;;;1.80;;
13483;SDS011;6814;57.786;12.080;2022-11-02T15:01:52;10.33;;;2.07;;
13483;SDS011;6814;57.786;12.080;2022-11-02T15:04:22;4.70;;;1.57;;
13483;SDS011;6814;57.786;12.080;2022-11-02T15:06:51;10.90;;;1.80;;
13483;SDS011;6814;57.786;12.080;2022-11-02T15:12:19;5.37;;;1.70;;